エドモントン の空港の天気 - METARとTAF

エドモントン国際空港 ( CYEG / YEG ) - カナダ アルバータ州Edmonton Capital Region
飛行場実況気象(Metar)
観測時間11/27 02:00 MST (11/27 09:00 UTC)
風向・風速南南西 5m/s
視程10km以上
天気現象
全天の4割程度の雲 雲底高度 2900m
全天を覆う雲 雲底高度 3350m
気温2℃
湿度60%
気圧997.7hPa
METARCYEG 270900Z 20009KT 20SM SCT095 OVC110 02/M05 A2938 RMK AC4AS4 SLP977
過去の天気等 Google飛行場航空写真 Wunderground天気予報

過去48時間のMETAR

飛行場予報(TAF)
発表時間: 11/27 01:40 MST (11/27 08:40 UTC)
予報対象時間: 27日2時 MST ~ 27日23時 MST
風向・風速南南西 5m/s
視程10km以上
全天の4割程度の雲 雲底高度 2440m
全天の8割程度の雲 雲底高度 5490m
27日2時 MST ~ 27日6時 MST に一時的に
全天の8割程度の雲 雲底高度 2440m
全天を覆う雲 雲底高度 4880m
27日6時 MST から
風向・風速北西 10m/s 瞬間風速 18m/s
視程10km以上
天気現象弱い雪
全天を覆う雲 雲底高度 910m
27日6時 MST ~ 27日8時 MST に一時的に
視程1610m
天気現象弱いしゅう雪
全天を覆う雲 鉛直視程 370m
27日6時 MST から 確率 30% で
視程1210m
天気現象弱いしゅう雪
全天を覆う雲 鉛直視程 240m
27日8時 MST から
風向・風速西北西 8m/s 瞬間風速 13m/s
視程10km以上
全天の8割程度の雲 雲底高度 910m
27日8時 MST ~ 27日10時 MST に一時的に
視程8050m
天気現象弱いしゅう雪
27日10時 MST から
風向・風速北西 9m/s 瞬間風速 14m/s
視程10km以上
全天の8割程度の雲 雲底高度 1220m
27日10時 MST ~ 27日23時 MST に一時的に
全天の4割程度の雲 雲底高度 1220m
TAF CYEG 270840Z 2709/2806 20010KT P6SM SCT080 BKN180
TEMPO 2709/2713 BKN080 OVC160
FM271300 32020G35KT P6SM -SN OVC030
TEMPO 2713/2715 1SM -SHSN VV012
PROB30 2713/2715 3/4SM -SHSN VV008
FM271500 30015G25KT P6SM BKN030
TEMPO 2715/2717 5SM -SHSN
FM271700 32018G28KT P6SM BKN040
TEMPO 2717/2806 SCT040 RMK NXT FCST BY 271200Z